createdAt,value
2022-12-17T00:01:49.594Z,17.30
2022-12-17T00:04:34.840Z,17.80
2022-12-17T00:07:20.571Z,16.60
2022-12-17T00:10:06.276Z,17.02
2022-12-17T00:12:52.099Z,18.70
2022-12-17T00:15:47.446Z,16.63
2022-12-17T00:18:33.199Z,16.20
2022-12-17T00:21:19.291Z,17.17
2022-12-17T00:24:04.814Z,16.88
2022-12-17T00:26:50.535Z,15.00
2022-12-17T00:29:36.043Z,15.15
2022-12-17T00:32:23.304Z,17.08
2022-12-17T00:35:09.175Z,16.17
2022-12-17T00:37:58.306Z,15.75
2022-12-17T00:40:43.679Z,16.38
2022-12-17T00:43:29.864Z,16.00
2022-12-17T00:46:15.315Z,15.90
2022-12-17T00:49:02.385Z,16.27
2022-12-17T00:51:48.104Z,16.20
2022-12-17T00:54:33.584Z,15.63
2022-12-17T00:57:18.850Z,16.48
2022-12-17T01:00:04.598Z,17.38
2022-12-17T01:02:49.268Z,16.45
2022-12-17T01:05:36.326Z,17.52
2022-12-17T01:08:28.392Z,16.48
2022-12-17T01:11:17.461Z,17.20
2022-12-17T01:14:08.312Z,15.52
2022-12-17T01:16:56.228Z,15.30
2022-12-17T01:19:42.029Z,16.67
2022-12-17T01:22:37.435Z,15.35
2022-12-17T01:25:23.486Z,16.02
2022-12-17T01:28:08.980Z,14.80
2022-12-17T01:30:55.223Z,15.57
2022-12-17T01:33:40.871Z,15.63
2022-12-17T01:36:26.154Z,15.50
2022-12-17T01:39:13.274Z,14.27
2022-12-17T01:41:58.464Z,14.90
2022-12-17T01:45:13.747Z,15.52
2022-12-17T01:48:01.476Z,16.23
2022-12-17T01:50:48.412Z,15.35
2022-12-17T01:53:34.635Z,14.52
2022-12-17T01:56:22.240Z,15.25
2022-12-17T01:59:07.504Z,14.40
2022-12-17T02:01:54.013Z,15.65
2022-12-17T02:04:40.795Z,15.80
2022-12-17T02:07:34.582Z,14.30
2022-12-17T02:10:25.172Z,14.68
2022-12-17T02:13:12.903Z,15.07
2022-12-17T02:16:01.984Z,14.63
2022-12-17T02:18:54.765Z,15.75
2022-12-17T02:21:40.558Z,14.77
2022-12-17T02:24:29.277Z,14.60
2022-12-17T02:27:17.583Z,14.88
2022-12-17T02:30:05.578Z,15.18
2022-12-17T02:32:53.026Z,14.50
2022-12-17T02:35:42.790Z,15.27
2022-12-17T02:38:47.599Z,15.10
2022-12-17T02:41:34.871Z,12.93
2022-12-17T02:44:21.947Z,14.95
2022-12-17T02:47:08.210Z,12.63
2022-12-17T02:49:54.011Z,12.50
2022-12-17T02:52:39.628Z,14.32
2022-12-17T02:55:25.418Z,12.57
2022-12-17T02:58:11.058Z,14.77
2022-12-17T03:00:58.034Z,14.40
2022-12-17T03:03:48.682Z,14.55
2022-12-17T03:06:35.506Z,12.93
2022-12-17T03:09:20.896Z,13.70
2022-12-17T03:12:06.401Z,14.88
2022-12-17T03:14:51.989Z,12.95
2022-12-17T03:17:38.797Z,13.18
2022-12-17T03:20:25.141Z,13.52
2022-12-17T03:23:10.754Z,14.30
2022-12-17T03:25:56.360Z,14.00
2022-12-17T03:28:41.931Z,12.80
2022-12-17T03:31:27.327Z,14.13
2022-12-17T03:34:13.935Z,13.65
2022-12-17T03:36:59.282Z,14.75
2022-12-17T03:39:44.838Z,13.70
2022-12-17T03:42:30.291Z,14.02
2022-12-17T03:45:15.704Z,13.60
2022-12-17T03:48:00.375Z,13.15
2022-12-17T03:50:47.246Z,13.88
2022-12-17T03:53:33.189Z,12.30
2022-12-17T03:56:18.841Z,13.02
2022-12-17T03:59:04.504Z,13.23
2022-12-17T04:01:51.657Z,12.18
2022-12-17T04:04:36.863Z,12.32
2022-12-17T04:07:23.833Z,14.77
2022-12-17T04:10:09.430Z,14.02
2022-12-17T04:12:55.019Z,12.63
2022-12-17T04:15:40.848Z,11.60
2022-12-17T04:18:26.154Z,13.75
2022-12-17T04:21:11.638Z,11.95
2022-12-17T04:23:58.515Z,13.30
2022-12-17T04:26:44.112Z,13.05
2022-12-17T04:29:29.802Z,11.68
2022-12-17T04:32:15.424Z,13.50
2022-12-17T04:35:00.779Z,12.40
2022-12-17T04:37:46.345Z,12.20
2022-12-17T04:40:33.223Z,12.05
2022-12-17T04:43:24.817Z,12.45
2022-12-17T04:46:10.483Z,12.77
2022-12-17T04:48:55.815Z,13.40
2022-12-17T04:51:41.429Z,13.43
2022-12-17T04:54:26.840Z,11.88
2022-12-17T04:57:13.728Z,12.10
2022-12-17T04:59:59.253Z,15.25
2022-12-17T05:02:44.910Z,12.52
2022-12-17T05:05:35.543Z,12.45
2022-12-17T05:08:21.088Z,13.02
2022-12-17T05:11:06.643Z,12.20
2022-12-17T05:13:53.449Z,12.65
2022-12-17T05:16:39.070Z,10.75
2022-12-17T05:19:24.348Z,12.10
2022-12-17T05:22:09.893Z,13.68
2022-12-17T05:24:55.541Z,11.32
2022-12-17T05:27:41.037Z,11.95
2022-12-17T05:30:28.860Z,11.27
2022-12-17T05:33:18.316Z,12.20
2022-12-17T05:36:03.542Z,11.18
2022-12-17T05:38:49.213Z,12.60
2022-12-17T05:41:34.738Z,13.40
2022-12-17T05:44:20.305Z,12.38
2022-12-17T05:47:06.918Z,13.48
2022-12-17T05:49:52.461Z,11.88
2022-12-17T05:52:38.037Z,10.75
2022-12-17T05:55:24.378Z,13.52
2022-12-17T05:58:09.894Z,11.40
2022-12-17T06:00:55.257Z,12.02
2022-12-17T06:03:42.640Z,11.30
2022-12-17T06:06:28.667Z,11.38
2022-12-17T06:09:14.360Z,12.18
2022-12-17T06:12:02.813Z,10.82
2022-12-17T06:14:48.386Z,13.32
2022-12-17T06:17:34.121Z,12.40
2022-12-17T06:20:20.855Z,11.57
2022-12-17T06:23:05.494Z,11.55
2022-12-17T06:25:51.193Z,11.43
2022-12-17T06:28:36.502Z,12.55
2022-12-17T06:31:22.196Z,11.43
2022-12-17T06:34:07.603Z,10.57
2022-12-17T06:36:54.593Z,11.52
2022-12-17T06:39:40.063Z,12.35
2022-12-17T06:42:25.411Z,11.07
2022-12-17T06:45:10.822Z,13.75
2022-12-17T06:47:55.527Z,13.98
2022-12-17T06:50:41.221Z,11.82
2022-12-17T06:53:28.595Z,12.27
2022-12-17T06:56:15.519Z,12.73
2022-12-17T06:59:00.982Z,11.55
2022-12-17T07:01:46.714Z,11.18
2022-12-17T07:04:32.184Z,10.85
2022-12-17T07:07:17.536Z,10.77
2022-12-17T07:10:06.910Z,11.57
2022-12-17T07:12:54.768Z,11.82
2022-12-17T07:15:40.491Z,11.93
2022-12-17T07:18:26.848Z,11.98
2022-12-17T07:21:12.350Z,12.63
2022-12-17T07:24:00.527Z,12.68
2022-12-17T07:26:47.665Z,12.00
2022-12-17T07:29:33.113Z,11.40
2022-12-17T07:32:18.709Z,10.15
2022-12-17T07:35:03.975Z,10.70
2022-12-17T07:37:49.614Z,11.00
2022-12-17T07:40:35.163Z,10.93
2022-12-17T07:43:37.717Z,12.70
2022-12-17T07:46:23.703Z,10.02
2022-12-17T07:49:09.351Z,11.07
2022-12-17T07:51:55.935Z,11.05
2022-12-17T07:54:41.525Z,11.52
2022-12-17T07:57:27.016Z,11.82
2022-12-17T08:00:13.695Z,12.50
2022-12-17T08:02:59.170Z,12.00
2022-12-17T08:05:44.491Z,11.30
2022-12-17T08:08:30.928Z,11.10
2022-12-17T08:11:16.374Z,10.95
2022-12-17T08:14:02.143Z,9.65
2022-12-17T08:16:48.975Z,10.52
2022-12-17T08:19:34.333Z,10.30
2022-12-17T08:22:16.143Z,11.00
2022-12-17T08:25:01.705Z,10.50
2022-12-17T08:27:47.250Z,9.68
2022-12-17T08:30:32.745Z,11.43
2022-12-17T08:33:22.494Z,10.05
2022-12-17T08:36:11.373Z,10.20
2022-12-17T08:38:57.089Z,10.18
2022-12-17T08:41:42.612Z,11.57
2022-12-17T08:44:27.962Z,10.85
2022-12-17T08:47:13.336Z,11.63
2022-12-17T08:50:00.461Z,15.90
2022-12-17T08:52:46.102Z,13.43
2022-12-17T08:55:31.482Z,13.50
2022-12-17T08:58:17.374Z,17.52
2022-12-17T09:01:03.193Z,10.45
2022-12-17T09:03:48.564Z,14.18
2022-12-17T09:06:39.139Z,12.88
2022-12-17T09:09:25.433Z,12.00
2022-12-17T09:12:10.663Z,11.80
2022-12-17T09:14:56.011Z,11.77
2022-12-17T09:17:41.602Z,13.43
2022-12-17T09:20:29.435Z,10.63
2022-12-17T09:23:16.733Z,11.18
2022-12-17T09:26:01.494Z,13.65
2022-12-17T09:28:46.182Z,14.65
2022-12-17T09:31:46.265Z,12.18
2022-12-17T09:34:32.002Z,10.30
2022-12-17T09:37:17.191Z,16.08
2022-12-17T09:40:03.948Z,89.32
2022-12-17T09:42:55.580Z,166.98
2022-12-17T09:45:46.576Z,120.45
2022-12-17T09:48:34.963Z,94.30
2022-12-17T09:51:20.659Z,84.28
2022-12-17T09:54:07.777Z,88.32
2022-12-17T09:56:54.711Z,76.28
2022-12-17T09:59:44.849Z,77.63
2022-12-17T10:02:33.818Z,66.32
2022-12-17T10:05:19.548Z,58.60
2022-12-17T10:08:05.072Z,59.92
2022-12-17T10:10:51.133Z,51.78
2022-12-17T10:13:39.124Z,46.72
2022-12-17T10:16:39.499Z,49.95
2022-12-17T10:19:25.084Z,49.17
2022-12-17T10:22:10.555Z,39.45
2022-12-17T10:25:03.300Z,41.17
2022-12-17T10:27:48.721Z,41.60
2022-12-17T10:30:35.873Z,34.30
2022-12-17T10:33:23.913Z,34.60
2022-12-17T10:36:09.602Z,32.03
2022-12-17T10:38:55.081Z,43.42
2022-12-17T10:41:41.169Z,32.53
2022-12-17T10:44:40.783Z,29.42
2022-12-17T10:47:30.785Z,29.73
2022-12-17T10:50:17.109Z,36.10
2022-12-17T10:53:03.082Z,28.33
2022-12-17T10:55:49.121Z,27.05
2022-12-17T10:58:38.885Z,25.50
2022-12-17T11:01:25.261Z,27.42
2022-12-17T11:04:12.570Z,59.47
2022-12-17T11:06:59.408Z,72.22
2022-12-17T11:09:56.785Z,57.08
2022-12-17T11:12:44.810Z,43.33
2022-12-17T11:15:35.886Z,43.90
2022-12-17T11:18:21.242Z,40.63
2022-12-17T11:21:11.832Z,38.25
2022-12-17T11:23:57.396Z,39.05
2022-12-17T11:26:42.990Z,35.40
2022-12-17T11:29:29.607Z,38.40
2022-12-17T11:32:26.456Z,37.42
2022-12-17T11:35:18.214Z,35.72
2022-12-17T11:38:08.154Z,31.75
2022-12-17T11:40:55.959Z,36.58
2022-12-17T11:43:44.156Z,29.65
2022-12-17T11:46:36.133Z,31.00
2022-12-17T11:49:25.958Z,24.45
2022-12-17T11:52:14.171Z,30.92
2022-12-17T11:55:02.565Z,25.52
2022-12-17T11:57:51.039Z,29.25
2022-12-17T12:00:39.745Z,28.38
2022-12-17T12:03:35.614Z,25.30
2022-12-17T12:06:22.203Z,25.92
2022-12-17T12:09:17.651Z,25.45
2022-12-17T12:12:07.427Z,26.08
2022-12-17T12:14:55.405Z,27.90
2022-12-17T12:17:47.694Z,24.30
2022-12-17T12:20:41.611Z,16.98
2022-12-17T12:23:31.659Z,22.55
2022-12-17T12:26:20.206Z,24.15
2022-12-17T12:29:09.584Z,20.70
2022-12-17T12:31:56.420Z,21.98
2022-12-17T12:34:43.773Z,21.33
2022-12-17T12:37:31.662Z,20.70
2022-12-17T12:40:19.780Z,22.58
2022-12-17T12:43:07.837Z,21.08
2022-12-17T12:45:59.427Z,22.48
2022-12-17T12:48:51.208Z,21.00
2022-12-17T12:51:39.138Z,18.40
2022-12-17T12:54:41.713Z,20.75
2022-12-17T12:57:43.470Z,20.65
2022-12-17T13:00:48.199Z,19.52
2022-12-17T13:03:53.432Z,18.63
2022-12-17T13:06:40.163Z,19.75
2022-12-17T13:09:22.739Z,15.60
2022-12-17T13:11:51.293Z,21.25
2022-12-17T13:14:20.389Z,21.60
2022-12-17T13:16:53.359Z,19.77
2022-12-17T13:19:34.481Z,16.60
2022-12-17T13:22:13.249Z,28.65
2022-12-17T13:24:41.175Z,26.45
2022-12-17T13:27:30.470Z,26.05
2022-12-17T13:29:58.386Z,29.02
2022-12-17T13:32:29.121Z,29.65
2022-12-17T13:35:10.293Z,27.85
2022-12-17T13:37:41.367Z,28.92
2022-12-17T13:40:19.197Z,26.15
2022-12-17T13:42:47.202Z,27.85
2022-12-17T13:45:16.229Z,31.80
2022-12-17T13:47:44.142Z,28.90
2022-12-17T13:50:33.999Z,27.58
2022-12-17T13:53:10.094Z,27.70
2022-12-17T13:55:39.313Z,25.73
2022-12-17T13:58:07.258Z,29.92
2022-12-17T14:00:35.183Z,30.67
2022-12-17T14:03:10.965Z,28.75
2022-12-17T14:05:42.421Z,24.25
2022-12-17T14:08:10.368Z,26.55
2022-12-17T14:10:38.184Z,28.05
2022-12-17T14:13:06.709Z,29.45
2022-12-17T14:15:35.026Z,21.15
2022-12-17T14:18:02.882Z,22.25
2022-12-17T14:20:31.412Z,25.02
2022-12-17T14:23:02.747Z,21.92
2022-12-17T14:25:31.504Z,26.73
2022-12-17T14:28:01.702Z,24.10
2022-12-17T14:30:34.721Z,20.05
2022-12-17T14:33:02.662Z,19.88
2022-12-17T14:35:31.431Z,22.30
2022-12-17T14:37:59.312Z,20.90
2022-12-17T14:40:28.597Z,21.67
2022-12-17T14:42:59.532Z,24.23
2022-12-17T14:45:28.025Z,19.65
2022-12-17T14:47:56.595Z,21.70
2022-12-17T14:50:30.139Z,18.80
2022-12-17T14:52:58.738Z,19.73
2022-12-17T14:55:33.493Z,17.77
2022-12-17T14:58:21.190Z,18.95
2022-12-17T15:00:51.281Z,20.20
2022-12-17T15:03:24.009Z,17.88
2022-12-17T15:05:54.340Z,17.50
2022-12-17T15:08:22.359Z,20.58
2022-12-17T15:10:51.600Z,17.05
2022-12-17T15:13:19.679Z,20.27
2022-12-17T15:15:47.715Z,21.77
2022-12-17T15:18:15.616Z,20.77
2022-12-17T15:20:43.527Z,18.20
2022-12-17T15:23:15.147Z,20.38
2022-12-17T15:25:46.659Z,19.52
2022-12-17T15:28:16.402Z,17.05
2022-12-17T15:30:44.439Z,18.77
2022-12-17T15:33:13.109Z,18.38
2022-12-17T15:35:40.999Z,15.30
2022-12-17T15:38:09.121Z,19.80
2022-12-17T15:40:37.322Z,16.33
2022-12-17T15:43:13.659Z,18.05
2022-12-17T15:45:43.971Z,17.75
2022-12-17T15:48:12.331Z,17.90
2022-12-17T15:50:40.387Z,19.58
2022-12-17T15:53:09.243Z,15.27
2022-12-17T15:56:16.591Z,14.85
2022-12-17T15:58:46.090Z,17.27
2022-12-17T16:01:15.392Z,19.30
2022-12-17T16:03:43.463Z,18.20
2022-12-17T16:06:11.406Z,14.23
2022-12-17T16:08:40.020Z,14.23
2022-12-17T16:11:09.259Z,14.13
2022-12-17T16:13:37.160Z,14.70
2022-12-17T16:16:05.505Z,15.48
2022-12-17T16:18:35.085Z,18.38
2022-12-17T16:21:04.235Z,17.25
2022-12-17T16:23:32.133Z,14.57
2022-12-17T16:26:00.333Z,17.83
2022-12-17T16:28:28.476Z,15.73
2022-12-17T16:31:01.266Z,15.10
2022-12-17T16:33:35.573Z,16.63
2022-12-17T16:36:06.213Z,18.98
2022-12-17T16:38:35.648Z,16.45
2022-12-17T16:41:04.231Z,16.45
2022-12-17T16:43:34.269Z,16.60
2022-12-17T16:46:02.703Z,15.68
2022-12-17T16:48:31.710Z,15.15
2022-12-17T16:50:59.830Z,14.82
2022-12-17T16:53:29.083Z,15.30
2022-12-17T16:55:56.964Z,15.82
2022-12-17T16:58:24.839Z,18.58
2022-12-17T17:00:54.976Z,17.80
2022-12-17T17:03:23.064Z,17.30
2022-12-17T17:05:51.119Z,15.10
2022-12-17T17:08:18.983Z,14.70
2022-12-17T17:10:48.152Z,17.08
2022-12-17T17:13:16.001Z,16.13
2022-12-17T17:15:44.173Z,15.52
2022-12-17T17:18:12.036Z,16.92
2022-12-17T17:20:39.861Z,14.43
2022-12-17T17:23:07.708Z,16.90
2022-12-17T17:25:57.592Z,15.43
2022-12-17T17:28:25.938Z,16.95
2022-12-17T17:30:59.772Z,14.88
2022-12-17T17:33:30.304Z,15.00
2022-12-17T17:36:04.355Z,16.33
2022-12-17T17:38:33.901Z,14.73
2022-12-17T17:41:01.810Z,16.90
2022-12-17T17:43:31.201Z,16.90
2022-12-17T17:46:05.368Z,14.85
2022-12-17T17:48:33.595Z,16.20
2022-12-17T17:51:01.915Z,17.15
2022-12-17T17:53:29.819Z,16.38
2022-12-17T17:56:03.390Z,14.88
2022-12-17T17:58:32.616Z,14.63
2022-12-17T18:01:00.567Z,16.10
2022-12-17T18:03:31.481Z,14.50
2022-12-17T18:06:02.139Z,14.30
2022-12-17T18:08:31.423Z,15.40
2022-12-17T18:10:59.664Z,14.57
2022-12-17T18:13:45.013Z,16.02
2022-12-17T18:16:14.731Z,14.73
2022-12-17T18:18:43.036Z,18.88
2022-12-17T18:21:12.792Z,15.32
2022-12-17T18:23:41.598Z,15.43
2022-12-17T18:26:10.982Z,14.15
2022-12-17T18:28:39.454Z,15.05
2022-12-17T18:31:09.177Z,15.15
2022-12-17T18:33:38.926Z,15.35
2022-12-17T18:36:12.169Z,18.17
2022-12-17T18:38:40.228Z,14.48
2022-12-17T18:41:30.236Z,15.02
2022-12-17T18:43:58.539Z,16.63
2022-12-17T18:46:26.517Z,13.93
2022-12-17T18:48:57.676Z,22.17
2022-12-17T18:51:25.559Z,14.50
2022-12-17T18:53:53.547Z,13.07
2022-12-17T18:56:44.856Z,12.88
2022-12-17T18:59:09.340Z,14.27
2022-12-17T19:01:37.850Z,13.82
2022-12-17T19:04:08.070Z,12.80
2022-12-17T19:06:36.998Z,13.05
2022-12-17T19:09:05.138Z,14.25
2022-12-17T19:11:33.070Z,13.48
2022-12-17T19:14:00.906Z,12.93
2022-12-17T19:16:29.563Z,13.20
2022-12-17T19:18:58.339Z,13.90
2022-12-17T19:21:27.554Z,16.33
2022-12-17T19:23:57.121Z,13.30
2022-12-17T19:26:25.424Z,16.25
2022-12-17T19:28:54.633Z,15.45
2022-12-17T19:31:23.612Z,13.25
2022-12-17T19:33:54.574Z,14.27
2022-12-17T19:36:27.890Z,15.02
2022-12-17T19:38:58.450Z,12.82
2022-12-17T19:41:27.352Z,12.40
2022-12-17T19:43:56.173Z,12.25
2022-12-17T19:46:24.287Z,12.80
2022-12-17T19:48:52.511Z,16.45
2022-12-17T19:51:22.720Z,19.90
2022-12-17T19:53:50.706Z,18.05
2022-12-17T19:56:21.190Z,16.90
2022-12-17T19:58:50.746Z,16.02
2022-12-17T20:01:20.094Z,20.38
2022-12-17T20:03:48.032Z,26.30
2022-12-17T20:06:16.750Z,23.67
2022-12-17T20:08:45.200Z,23.23
2022-12-17T20:11:28.076Z,25.73
2022-12-17T20:13:57.766Z,26.17
2022-12-17T20:16:25.708Z,17.95
2022-12-17T20:18:53.626Z,20.10
2022-12-17T20:21:23.693Z,16.27
2022-12-17T20:23:51.652Z,21.00
2022-12-17T20:26:19.592Z,16.65
2022-12-17T20:28:47.461Z,14.65
2022-12-17T20:31:16.824Z,16.10
2022-12-17T20:33:44.866Z,13.02
2022-12-17T20:36:13.970Z,16.05
2022-12-17T20:38:42.355Z,16.85
2022-12-17T20:41:11.269Z,17.58
2022-12-17T20:43:39.217Z,15.57
2022-12-17T20:46:07.419Z,11.43
2022-12-17T20:48:37.316Z,14.73
2022-12-17T20:51:07.167Z,16.77
2022-12-17T20:53:35.636Z,12.75
2022-12-17T20:56:03.899Z,13.20
2022-12-17T20:58:31.818Z,13.93
2022-12-17T21:01:03.904Z,13.23
2022-12-17T21:03:32.422Z,17.98
2022-12-17T21:06:09.795Z,13.13
2022-12-17T21:08:38.173Z,17.83
2022-12-17T21:11:06.641Z,14.23
2022-12-17T21:13:34.711Z,12.05
2022-12-17T21:16:04.177Z,12.63
2022-12-17T21:18:32.302Z,14.15
2022-12-17T21:21:00.963Z,12.68
2022-12-17T21:23:31.440Z,12.73
2022-12-17T21:26:00.804Z,12.40
2022-12-17T21:28:29.551Z,12.00
2022-12-17T21:30:57.619Z,13.07
2022-12-17T21:33:25.622Z,12.45
2022-12-17T21:35:59.341Z,16.55
2022-12-17T21:38:27.464Z,13.35
2022-12-17T21:40:56.881Z,11.90
2022-12-17T21:43:24.925Z,12.57
2022-12-17T21:45:57.435Z,14.27
2022-12-17T21:48:25.433Z,13.65
2022-12-17T21:50:53.314Z,11.57
2022-12-17T21:53:21.682Z,15.32
2022-12-17T21:55:49.805Z,13.77
2022-12-17T21:58:19.301Z,10.80
2022-12-17T22:00:47.189Z,12.55
2022-12-17T22:03:15.649Z,11.15
2022-12-17T22:05:43.519Z,13.18
2022-12-17T22:08:12.682Z,12.38
2022-12-17T22:10:52.422Z,10.60
2022-12-17T22:13:39.428Z,13.65
2022-12-17T22:16:07.923Z,12.27
2022-12-17T22:18:36.036Z,12.10
2022-12-17T22:21:04.084Z,14.35
2022-12-17T22:23:32.143Z,10.70
2022-12-17T22:26:00.449Z,14.18
2022-12-17T22:28:29.679Z,14.30
2022-12-17T22:31:15.196Z,11.60
2022-12-17T22:33:45.673Z,11.57
2022-12-17T22:38:07.604Z,13.48
2022-12-17T22:40:59.392Z,13.75
2022-12-17T22:44:27.346Z,11.43
2022-12-17T22:45:13.302Z,11.45
2022-12-17T22:47:41.709Z,13.32
2022-12-17T22:50:10.359Z,14.10
2022-12-17T22:52:38.903Z,14.85
2022-12-17T22:55:07.961Z,12.45
2022-12-17T22:57:38.391Z,14.15
2022-12-17T23:00:10.173Z,13.95
2022-12-17T23:02:39.515Z,13.45
2022-12-17T23:05:07.882Z,13.43
2022-12-17T23:07:35.988Z,12.65
2022-12-17T23:10:03.960Z,13.73
2022-12-17T23:12:49.391Z,12.88
2022-12-17T23:15:19.371Z,12.88
2022-12-17T23:17:48.620Z,13.40
2022-12-17T23:20:16.624Z,14.10
2022-12-17T23:22:44.456Z,12.60
2022-12-17T23:25:12.301Z,13.30
2022-12-17T23:27:40.191Z,13.48
2022-12-17T23:30:10.598Z,13.18
2022-12-17T23:32:38.593Z,14.20
2022-12-17T23:35:08.823Z,16.23
2022-12-17T23:37:40.045Z,11.73
2022-12-17T23:40:12.333Z,11.13
2022-12-17T23:42:40.336Z,12.13
2022-12-17T23:45:11.101Z,11.43
2022-12-17T23:47:39.554Z,12.13
2022-12-17T23:50:09.832Z,13.48
2022-12-17T23:52:38.308Z,14.15
2022-12-17T23:55:06.562Z,13.45
2022-12-17T23:57:34.406Z,12.23
